createdAt,value
2022-11-17T00:00:24.797Z,8.50
2022-11-17T00:01:24.859Z,8.51
2022-11-17T00:02:24.989Z,8.53
2022-11-17T00:03:24.976Z,8.54
2022-11-17T00:04:25.074Z,8.55
2022-11-17T00:05:25.132Z,8.55
2022-11-17T00:06:25.207Z,8.55
2022-11-17T00:07:25.317Z,8.57
2022-11-17T00:08:25.362Z,8.60
2022-11-17T00:09:25.453Z,8.62
2022-11-17T00:10:25.525Z,8.62
2022-11-17T00:11:25.595Z,8.62
2022-11-17T00:12:29.893Z,8.62
2022-11-17T00:13:25.738Z,8.62
2022-11-17T00:14:25.824Z,8.63
2022-11-17T00:15:25.896Z,8.65
2022-11-17T00:16:26.016Z,8.65
2022-11-17T00:17:26.093Z,8.66
2022-11-17T00:18:26.161Z,8.68
2022-11-17T00:19:26.247Z,8.68
2022-11-17T00:20:26.332Z,8.69
2022-11-17T00:21:26.446Z,8.69
2022-11-17T00:22:26.478Z,8.69
2022-11-17T00:23:26.559Z,8.68
2022-11-17T00:24:26.644Z,8.66
2022-11-17T00:25:26.695Z,8.65
2022-11-17T00:26:26.768Z,8.65
2022-11-17T00:27:26.830Z,8.63
2022-11-17T00:28:26.912Z,8.63
2022-11-17T00:29:27.023Z,8.62
2022-11-17T00:30:27.122Z,8.63
2022-11-17T00:31:27.145Z,8.65
2022-11-17T00:32:27.214Z,8.62
2022-11-17T00:33:27.295Z,8.60
2022-11-17T00:34:27.406Z,8.62
2022-11-17T00:35:27.453Z,8.57
2022-11-17T00:36:27.554Z,8.57
2022-11-17T00:37:27.611Z,8.54
2022-11-17T00:38:27.720Z,8.53
2022-11-17T00:39:27.803Z,8.51
2022-11-17T00:40:27.892Z,8.47
2022-11-17T00:43:52.599Z,8.25
2022-11-17T00:44:53.705Z,8.18
2022-11-17T00:45:53.886Z,8.15
2022-11-17T00:46:53.805Z,8.12
2022-11-17T00:49:36.133Z,8.07
2022-11-17T00:50:37.187Z,8.02
2022-11-17T00:51:37.314Z,8.02
2022-11-17T00:52:37.263Z,8.03
2022-11-17T00:53:37.638Z,8.07
2022-11-17T00:54:37.432Z,8.11
2022-11-17T00:55:37.612Z,8.11
2022-11-17T00:56:37.602Z,8.12
2022-11-17T00:57:37.700Z,8.17
2022-11-17T00:58:37.775Z,8.20
2022-11-17T01:01:21.189Z,8.21
2022-11-17T01:02:22.131Z,8.17
2022-11-17T01:03:22.183Z,8.17
2022-11-17T01:04:22.241Z,8.17
2022-11-17T01:05:22.337Z,8.20
2022-11-17T01:06:22.409Z,8.18
2022-11-17T01:07:22.610Z,8.21
2022-11-17T01:08:22.565Z,8.21
2022-11-17T01:09:22.648Z,8.22
2022-11-17T01:10:22.750Z,8.25
2022-11-17T01:11:22.817Z,8.25
2022-11-17T01:12:22.855Z,8.26
2022-11-17T01:13:22.916Z,8.28
2022-11-17T01:14:23.009Z,8.29
2022-11-17T01:15:23.118Z,8.29
2022-11-17T01:16:23.143Z,8.30
2022-11-17T01:17:23.234Z,8.30
2022-11-17T01:18:23.328Z,8.30
2022-11-17T01:19:23.400Z,8.32
2022-11-17T01:20:23.509Z,8.33
2022-11-17T01:21:23.564Z,8.35
2022-11-17T01:22:23.655Z,8.33
2022-11-17T01:23:23.742Z,8.35
2022-11-17T01:24:23.810Z,8.36
2022-11-17T01:25:23.931Z,8.33
2022-11-17T01:26:24.028Z,8.32
2022-11-17T01:27:24.021Z,8.29
2022-11-17T01:28:24.111Z,8.26
2022-11-17T01:29:24.191Z,8.25
2022-11-17T01:30:24.297Z,8.22
2022-11-17T01:31:24.389Z,8.20
2022-11-17T01:32:24.459Z,8.17
2022-11-17T01:33:24.548Z,8.14
2022-11-17T01:34:24.608Z,8.14
2022-11-17T01:35:24.713Z,8.14
2022-11-17T01:36:24.751Z,8.15
2022-11-17T01:37:24.830Z,8.18
2022-11-17T01:38:24.917Z,8.18
2022-11-17T01:39:24.991Z,8.20
2022-11-17T01:40:25.089Z,8.20
2022-11-17T01:41:25.164Z,8.20
2022-11-17T01:42:25.248Z,8.21
2022-11-17T01:43:25.325Z,8.21
2022-11-17T01:44:25.397Z,8.20
2022-11-17T01:45:25.501Z,8.20
2022-11-17T01:46:25.576Z,8.20
2022-11-17T01:47:25.653Z,8.21
2022-11-17T01:48:25.731Z,8.20
2022-11-17T01:49:25.808Z,8.22
2022-11-17T01:50:25.891Z,8.22
2022-11-17T01:51:25.989Z,8.25
2022-11-17T01:52:26.039Z,8.26
2022-11-17T01:53:26.120Z,8.26
2022-11-17T01:54:26.243Z,8.28
2022-11-17T01:55:26.342Z,8.28
2022-11-17T01:56:26.425Z,8.28
2022-11-17T01:57:26.520Z,8.29
2022-11-17T02:00:30.605Z,8.17
2022-11-17T02:01:31.723Z,8.14
2022-11-17T02:02:31.743Z,8.11
2022-11-17T02:03:31.925Z,8.12
2022-11-17T02:04:31.884Z,8.11
2022-11-17T02:09:20.199Z,7.93
2022-11-17T02:10:21.353Z,7.90
2022-11-17T02:11:21.315Z,7.90
2022-11-17T02:12:21.417Z,7.92
2022-11-17T02:13:21.506Z,7.94
2022-11-17T02:14:21.553Z,7.97
2022-11-17T02:15:21.672Z,7.99
2022-11-17T02:16:21.772Z,8.02
2022-11-17T02:17:21.856Z,8.03
2022-11-17T02:18:21.900Z,8.04
2022-11-17T02:19:22.020Z,8.08
2022-11-17T02:20:22.105Z,8.11
2022-11-17T02:21:22.220Z,8.10
2022-11-17T02:22:22.283Z,8.11
2022-11-17T02:23:22.349Z,8.12
2022-11-17T02:24:22.453Z,8.12
2022-11-17T02:25:26.848Z,8.14
2022-11-17T02:26:22.608Z,8.14
2022-11-17T02:27:22.698Z,8.15
2022-11-17T02:28:22.790Z,8.15
2022-11-17T02:29:22.837Z,8.17
2022-11-17T02:30:22.917Z,8.17
2022-11-17T02:31:23.007Z,8.18
2022-11-17T02:32:23.110Z,8.18
2022-11-17T02:33:23.154Z,8.20
2022-11-17T02:34:23.238Z,8.21
2022-11-17T02:37:39.555Z,8.18
2022-11-17T02:38:40.634Z,8.15
2022-11-17T02:41:25.676Z,8.15
2022-11-17T02:42:26.717Z,8.14
2022-11-17T02:46:36.057Z,8.00
2022-11-17T02:50:17.943Z,7.89
2022-11-17T02:51:19.021Z,7.87
2022-11-17T02:52:31.313Z,7.87
2022-11-17T02:53:19.192Z,7.89
2022-11-17T02:54:19.289Z,7.90
2022-11-17T02:55:19.307Z,7.94
2022-11-17T02:56:19.359Z,7.99
2022-11-17T02:57:19.452Z,8.02
2022-11-17T02:58:19.506Z,8.04
2022-11-17T02:59:19.625Z,8.11
2022-11-17T03:00:19.706Z,8.12
2022-11-17T03:01:19.851Z,8.17
2022-11-17T03:02:19.858Z,8.20
2022-11-17T03:03:19.927Z,8.25
2022-11-17T03:04:19.990Z,8.26
2022-11-17T03:05:20.081Z,8.28
2022-11-17T03:06:20.146Z,8.32
2022-11-17T03:07:20.240Z,8.35
2022-11-17T03:08:20.267Z,8.36
2022-11-17T03:09:20.323Z,8.37
2022-11-17T03:10:20.395Z,8.37
2022-11-17T03:11:20.539Z,8.39
2022-11-17T03:12:20.614Z,8.40
2022-11-17T03:13:20.702Z,8.40
2022-11-17T03:14:20.745Z,8.42
2022-11-17T03:19:43.843Z,8.22
2022-11-17T03:20:44.964Z,8.20
2022-11-17T03:21:44.939Z,8.18
2022-11-17T03:22:45.042Z,8.20
2022-11-17T03:23:45.120Z,8.21
2022-11-17T03:24:45.203Z,8.25
2022-11-17T03:25:45.222Z,8.25
2022-11-17T03:26:45.348Z,8.26
2022-11-17T03:27:45.450Z,8.29
2022-11-17T03:28:45.520Z,8.30
2022-11-17T03:29:45.585Z,8.30
2022-11-17T03:30:45.659Z,8.32
2022-11-17T03:34:34.325Z,8.22
2022-11-17T03:35:35.344Z,8.20
2022-11-17T03:38:56.950Z,8.08
2022-11-17T03:41:57.385Z,8.02
2022-11-17T03:42:58.388Z,8.02
2022-11-17T03:43:58.457Z,8.02
2022-11-17T03:44:58.519Z,8.03
2022-11-17T03:47:50.750Z,8.07
2022-11-17T03:48:51.764Z,8.04
2022-11-17T03:49:51.708Z,8.03
2022-11-17T03:50:51.802Z,8.07
2022-11-17T03:51:51.909Z,8.10
2022-11-17T03:52:51.964Z,8.12
2022-11-17T03:53:52.023Z,8.14
2022-11-17T03:54:52.128Z,8.17
2022-11-17T03:55:52.219Z,8.20
2022-11-17T03:56:52.283Z,8.22
2022-11-17T03:57:52.365Z,8.22
2022-11-17T03:58:52.459Z,8.25
2022-11-17T03:59:52.550Z,8.26
2022-11-17T04:01:01.774Z,8.29
2022-11-17T04:01:52.796Z,8.29
2022-11-17T04:02:53.062Z,8.29
2022-11-17T04:03:52.913Z,8.29
2022-11-17T04:04:52.944Z,8.32
2022-11-17T04:05:53.016Z,8.32
2022-11-17T04:06:53.266Z,8.36
2022-11-17T04:07:53.255Z,8.35
2022-11-17T04:08:53.303Z,8.39
2022-11-17T04:09:53.373Z,8.39
2022-11-17T04:14:45.080Z,8.21
2022-11-17T04:18:27.554Z,8.07
2022-11-17T04:19:28.573Z,8.03
2022-11-17T04:20:28.618Z,8.02
2022-11-17T04:23:19.501Z,7.99
2022-11-17T04:34:31.706Z,7.58
2022-11-17T04:35:41.891Z,7.56
2022-11-17T04:36:32.810Z,7.55
2022-11-17T04:39:32.960Z,7.52
2022-11-17T04:40:33.978Z,7.49
2022-11-17T04:41:34.059Z,7.50
2022-11-17T04:42:34.149Z,7.55
2022-11-17T04:43:34.677Z,7.60
2022-11-17T04:44:34.263Z,7.66
2022-11-17T04:45:34.363Z,7.71
2022-11-17T04:46:34.449Z,7.75
2022-11-17T04:47:34.532Z,7.79
2022-11-17T04:48:34.623Z,7.84
2022-11-17T04:49:34.694Z,7.89
2022-11-17T04:50:34.773Z,7.92
2022-11-17T04:51:34.890Z,7.94
2022-11-17T04:52:34.957Z,7.99
2022-11-17T04:53:35.273Z,8.00
2022-11-17T04:54:35.129Z,8.03
2022-11-17T04:55:35.204Z,8.08
2022-11-17T04:56:35.273Z,8.10
2022-11-17T04:57:35.361Z,8.12
2022-11-17T04:58:35.456Z,8.15
2022-11-17T04:59:35.504Z,8.20
2022-11-17T05:00:35.601Z,8.21
2022-11-17T05:01:35.689Z,8.26
2022-11-17T05:02:35.890Z,8.28
2022-11-17T05:03:36.313Z,8.29
2022-11-17T05:04:35.918Z,8.32
2022-11-17T05:05:36.014Z,8.33
2022-11-17T05:06:36.097Z,8.35
2022-11-17T05:07:36.235Z,8.37
2022-11-17T05:08:36.271Z,8.39
2022-11-17T05:09:36.329Z,8.42
2022-11-17T05:10:36.426Z,8.40
2022-11-17T05:11:36.489Z,8.44
2022-11-17T05:12:36.559Z,8.45
2022-11-17T05:13:37.113Z,8.48
2022-11-17T05:14:36.775Z,8.50
2022-11-17T05:15:36.798Z,8.51
2022-11-17T05:16:36.875Z,8.51
2022-11-17T05:17:36.946Z,8.53
2022-11-17T05:18:37.048Z,8.54
2022-11-17T05:19:37.070Z,8.54
2022-11-17T05:20:37.149Z,8.55
2022-11-17T05:21:37.236Z,8.57
2022-11-17T05:22:37.312Z,8.55
2022-11-17T05:23:37.736Z,8.58
2022-11-17T05:24:37.488Z,8.57
2022-11-17T05:25:37.572Z,8.58
2022-11-17T05:26:37.656Z,8.58
2022-11-17T05:27:37.724Z,8.58
2022-11-17T05:28:37.816Z,8.58
2022-11-17T05:29:37.876Z,8.58
2022-11-17T05:30:37.981Z,8.60
2022-11-17T05:31:38.032Z,8.58
2022-11-17T05:32:38.097Z,8.60
2022-11-17T05:33:38.262Z,8.58
2022-11-17T05:34:38.272Z,8.60
2022-11-17T05:35:38.362Z,8.62
2022-11-17T05:36:38.439Z,8.62
2022-11-17T05:37:38.515Z,8.62
2022-11-17T05:38:38.578Z,8.63
2022-11-17T05:39:38.672Z,8.63
2022-11-17T05:40:38.707Z,8.63
2022-11-17T05:41:38.794Z,8.63
2022-11-17T05:42:38.847Z,8.65
2022-11-17T05:43:38.942Z,8.62
2022-11-17T05:44:39.045Z,8.63
2022-11-17T05:45:39.103Z,8.63
2022-11-17T05:46:39.180Z,8.63
2022-11-17T05:47:39.271Z,8.62
2022-11-17T05:48:39.344Z,8.62
2022-11-17T05:49:39.435Z,8.62
2022-11-17T05:50:39.509Z,8.63
2022-11-17T05:51:39.586Z,8.62
2022-11-17T05:52:39.668Z,8.63
2022-11-17T05:53:39.737Z,8.63
2022-11-17T05:54:39.836Z,8.63
2022-11-17T05:55:39.892Z,8.65
2022-11-17T05:56:39.990Z,8.65
2022-11-17T05:57:40.156Z,8.65
2022-11-17T05:58:40.156Z,8.66
2022-11-17T05:59:40.248Z,8.66
2022-11-17T06:00:40.345Z,8.68
2022-11-17T06:01:40.426Z,8.71
2022-11-17T06:02:40.503Z,8.69
2022-11-17T06:03:40.582Z,8.71
2022-11-17T06:04:40.820Z,8.73
2022-11-17T06:05:40.738Z,8.72
2022-11-17T06:06:40.822Z,8.72
2022-11-17T06:07:40.905Z,8.72
2022-11-17T06:08:41.015Z,8.73
2022-11-17T06:09:41.109Z,8.73
2022-11-17T06:10:41.189Z,8.75
2022-11-17T06:11:41.286Z,8.75
2022-11-17T06:12:41.365Z,8.76
2022-11-17T06:13:41.444Z,8.78
2022-11-17T06:14:41.554Z,8.76
2022-11-17T06:15:41.595Z,8.76
2022-11-17T06:16:41.665Z,8.78
2022-11-17T06:17:41.735Z,8.79
2022-11-17T06:18:41.833Z,8.78
2022-11-17T06:19:41.934Z,8.79
2022-11-17T06:20:41.958Z,8.79
2022-11-17T06:22:10.165Z,8.79
2022-11-17T06:22:47.114Z,8.79
2022-11-17T06:23:42.236Z,8.79
2022-11-17T06:24:42.389Z,8.79
2022-11-17T06:25:42.388Z,8.79
2022-11-17T06:26:42.482Z,8.81
2022-11-17T06:27:42.566Z,8.79
2022-11-17T06:28:42.682Z,8.79
2022-11-17T06:29:44.837Z,8.79
2022-11-17T06:30:42.857Z,8.83
2022-11-17T06:31:43.023Z,8.81
2022-11-17T06:32:42.995Z,8.83
2022-11-17T06:33:43.066Z,8.84
2022-11-17T06:34:43.179Z,8.86
2022-11-17T06:35:43.256Z,8.86
2022-11-17T06:36:43.334Z,8.86
2022-11-17T06:37:43.409Z,8.86
2022-11-17T06:38:43.480Z,8.86
2022-11-17T06:39:43.615Z,8.86
2022-11-17T06:40:43.641Z,8.87
2022-11-17T06:41:43.716Z,8.87
2022-11-17T06:42:43.810Z,8.87
2022-11-17T06:43:43.891Z,8.88
2022-11-17T06:44:43.999Z,8.87
2022-11-17T06:45:44.032Z,8.88
2022-11-17T06:46:50.708Z,8.87
2022-11-17T06:47:44.195Z,8.86
2022-11-17T06:48:44.273Z,8.84
2022-11-17T06:49:44.396Z,8.83
2022-11-17T06:50:44.438Z,8.83
2022-11-17T06:51:45.831Z,8.84
2022-11-17T06:52:44.668Z,8.86
2022-11-17T06:53:44.727Z,8.86
2022-11-17T06:54:44.826Z,8.87
2022-11-17T06:55:44.877Z,8.88
2022-11-17T06:56:44.995Z,8.88
2022-11-17T06:57:50.348Z,8.90
2022-11-17T06:58:45.168Z,8.91
2022-11-17T06:59:45.260Z,8.93
2022-11-17T07:00:52.952Z,8.93
2022-11-17T07:01:45.390Z,8.94
2022-11-17T07:02:45.477Z,8.93
2022-11-17T07:03:45.536Z,8.93
2022-11-17T07:04:45.716Z,8.93
2022-11-17T07:05:48.539Z,8.93
2022-11-17T07:06:45.831Z,8.94
2022-11-17T07:07:45.949Z,8.93
2022-11-17T07:08:45.997Z,8.94
2022-11-17T07:09:46.126Z,8.94
2022-11-17T07:10:49.261Z,8.96
2022-11-17T07:11:46.212Z,8.96
2022-11-17T07:12:46.391Z,8.97
2022-11-17T07:13:46.391Z,8.97
2022-11-17T07:14:46.524Z,8.99
2022-11-17T07:15:46.583Z,8.99
2022-11-17T07:16:46.718Z,9.01
2022-11-17T07:17:46.779Z,9.02
2022-11-17T07:18:46.949Z,9.02
2022-11-17T07:19:47.000Z,9.02
2022-11-17T07:20:47.121Z,9.04
2022-11-17T07:21:47.184Z,9.05
2022-11-17T07:22:47.261Z,9.05
2022-11-17T07:23:47.373Z,9.05
2022-11-17T07:24:47.414Z,9.06
2022-11-17T07:25:47.526Z,9.06
2022-11-17T07:26:47.575Z,9.10
2022-11-17T07:27:47.698Z,9.09
2022-11-17T07:28:47.773Z,9.12
2022-11-17T07:29:47.848Z,9.13
2022-11-17T07:30:47.884Z,9.15
2022-11-17T07:31:47.987Z,9.16
2022-11-17T07:32:53.387Z,9.16
2022-11-17T07:33:48.117Z,9.18
2022-11-17T07:34:48.254Z,9.20
2022-11-17T07:35:48.319Z,9.23
2022-11-17T07:36:48.373Z,9.24
2022-11-17T07:37:48.493Z,9.25
2022-11-17T07:38:48.541Z,9.25
2022-11-17T07:39:48.704Z,9.27
2022-11-17T07:40:48.745Z,9.30
2022-11-17T07:41:48.838Z,9.27
2022-11-17T07:42:48.885Z,9.30
2022-11-17T07:43:49.001Z,9.30
2022-11-17T07:44:49.070Z,9.30
2022-11-17T07:45:49.155Z,9.30
2022-11-17T07:46:49.210Z,9.30
2022-11-17T07:47:49.332Z,9.34
2022-11-17T07:48:49.393Z,9.31
2022-11-17T07:49:49.496Z,9.32
2022-11-17T07:50:49.558Z,9.32
2022-11-17T07:51:49.682Z,9.35
2022-11-17T07:52:49.748Z,9.35
2022-11-17T07:53:49.848Z,9.39
2022-11-17T07:54:49.931Z,9.40
2022-11-17T07:55:49.978Z,9.40
2022-11-17T07:56:50.116Z,9.43
2022-11-17T07:57:50.175Z,9.45
2022-11-17T07:58:50.267Z,9.46
2022-11-17T07:59:50.356Z,9.46
2022-11-17T08:00:50.522Z,9.46
2022-11-17T08:01:50.497Z,9.48
2022-11-17T08:02:50.556Z,9.50
2022-11-17T08:03:50.716Z,9.50
2022-11-17T08:04:50.769Z,9.50
2022-11-17T08:05:50.831Z,9.50
2022-11-17T08:06:51.067Z,9.53
2022-11-17T08:07:51.013Z,9.56
2022-11-17T08:08:51.079Z,9.56
2022-11-17T08:09:51.175Z,9.57
2022-11-17T08:10:51.303Z,9.57
2022-11-17T08:11:51.318Z,9.58
2022-11-17T08:12:51.416Z,9.58
2022-11-17T08:13:51.486Z,9.60
2022-11-17T08:14:51.573Z,9.60
2022-11-17T08:15:51.642Z,9.61
2022-11-17T08:16:51.759Z,9.63
2022-11-17T08:17:51.845Z,9.61
2022-11-17T08:18:52.756Z,9.64
2022-11-17T08:19:51.959Z,9.66
2022-11-17T08:20:52.029Z,9.67
2022-11-17T08:21:52.156Z,9.67
2022-11-17T08:22:52.234Z,9.68
2022-11-17T08:23:52.288Z,9.67
2022-11-17T08:24:52.401Z,9.71
2022-11-17T08:25:52.485Z,9.70
2022-11-17T08:26:52.503Z,9.71
2022-11-17T08:27:52.635Z,9.73
2022-11-17T08:28:58.193Z,9.71
2022-11-17T08:29:52.859Z,9.73
2022-11-17T08:30:52.882Z,9.73
2022-11-17T08:31:52.994Z,9.71
2022-11-17T08:32:53.010Z,9.71
2022-11-17T08:33:53.118Z,9.73
2022-11-17T08:34:53.200Z,9.71
2022-11-17T08:35:53.276Z,9.73
2022-11-17T08:36:53.341Z,9.73
2022-11-17T08:37:53.442Z,9.71
2022-11-17T08:38:53.749Z,9.71
2022-11-17T08:39:53.689Z,9.71
2022-11-17T08:40:53.708Z,9.71
2022-11-17T08:41:53.829Z,9.71
2022-11-17T08:43:00.362Z,9.71
2022-11-17T08:43:54.000Z,9.71
2022-11-17T08:44:54.085Z,9.71
2022-11-17T08:45:54.121Z,9.71
2022-11-17T08:46:54.181Z,9.71
2022-11-17T08:47:54.320Z,9.73
2022-11-17T08:48:57.090Z,9.75
2022-11-17T08:49:54.561Z,9.75
2022-11-17T08:50:54.532Z,9.75
2022-11-17T08:51:54.642Z,9.76
2022-11-17T08:52:54.691Z,9.76
2022-11-17T08:53:54.795Z,9.78
2022-11-17T08:54:54.920Z,9.79
2022-11-17T08:55:55.035Z,9.79
2022-11-17T08:56:55.072Z,9.82
2022-11-17T08:57:55.083Z,9.81
2022-11-17T08:58:55.145Z,9.83
2022-11-17T08:59:55.334Z,9.82
2022-11-17T09:00:58.501Z,9.82
2022-11-17T09:01:55.409Z,9.81
2022-11-17T09:02:55.493Z,9.81
2022-11-17T09:03:55.575Z,9.81
2022-11-17T09:04:55.764Z,9.82
2022-11-17T09:05:55.760Z,9.82
2022-11-17T09:06:55.892Z,9.85
2022-11-17T09:08:05.972Z,9.85
2022-11-17T09:08:56.435Z,9.88
2022-11-17T09:09:56.113Z,9.89
2022-11-17T09:10:56.151Z,9.91
2022-11-17T09:11:56.238Z,9.94
2022-11-17T09:12:56.316Z,9.96
2022-11-17T09:13:56.447Z,9.99
2022-11-17T09:14:56.548Z,10.00
2022-11-17T09:15:56.619Z,10.04
2022-11-17T09:16:56.727Z,10.04
2022-11-17T09:17:56.860Z,10.07
2022-11-17T09:18:56.829Z,10.09
2022-11-17T09:19:56.996Z,10.12
2022-11-17T09:20:57.078Z,10.12
2022-11-17T09:21:57.090Z,10.14
2022-11-17T09:22:57.183Z,10.12
2022-11-17T09:23:57.254Z,10.17
2022-11-17T09:24:57.334Z,10.22
2022-11-17T09:25:57.412Z,10.26
2022-11-17T09:26:57.582Z,10.26
2022-11-17T09:27:57.584Z,10.28
2022-11-17T09:28:57.630Z,10.28
2022-11-17T09:29:57.770Z,10.30
2022-11-17T09:30:58.738Z,10.32
2022-11-17T09:31:57.916Z,10.33
2022-11-17T09:32:57.946Z,10.34
2022-11-17T09:34:00.838Z,10.36
2022-11-17T09:34:58.164Z,10.36
2022-11-17T09:35:58.219Z,10.37
2022-11-17T09:36:58.284Z,10.37
2022-11-17T09:37:58.389Z,10.40
2022-11-17T09:38:58.516Z,10.43
2022-11-17T09:39:58.593Z,10.46
2022-11-17T09:40:58.670Z,10.47
2022-11-17T09:41:58.739Z,10.47
2022-11-17T09:42:58.826Z,10.51
2022-11-17T09:43:58.939Z,10.53
2022-11-17T09:44:58.986Z,10.55
2022-11-17T09:46:03.084Z,10.56
2022-11-17T09:46:59.135Z,10.56
2022-11-17T09:48:12.628Z,10.58
2022-11-17T09:48:59.313Z,10.60
2022-11-17T09:49:59.605Z,10.63
2022-11-17T09:50:59.535Z,10.63
2022-11-17T09:51:59.574Z,10.65
2022-11-17T09:52:59.631Z,10.68
2022-11-17T09:53:59.717Z,10.68
2022-11-17T09:54:59.784Z,10.70
2022-11-17T09:55:59.904Z,10.73
2022-11-17T09:56:59.934Z,10.74
2022-11-17T09:58:00.037Z,10.76
2022-11-17T09:59:00.084Z,10.76
2022-11-17T10:00:00.220Z,10.77
2022-11-17T10:01:00.272Z,10.78
2022-11-17T10:02:00.421Z,10.80
2022-11-17T10:03:00.470Z,10.81
2022-11-17T10:04:00.521Z,10.83
2022-11-17T10:05:00.637Z,10.86
2022-11-17T10:06:00.756Z,10.84
2022-11-17T10:07:00.784Z,10.88
2022-11-17T10:08:00.827Z,10.88
2022-11-17T10:09:00.907Z,10.92
2022-11-17T10:10:00.995Z,10.95
2022-11-17T10:11:01.041Z,10.96
2022-11-17T10:12:01.144Z,10.96
2022-11-17T10:13:01.216Z,11.01
2022-11-17T10:14:01.322Z,11.03
2022-11-17T10:15:01.408Z,11.07
2022-11-17T10:16:01.436Z,11.10
2022-11-17T10:17:01.473Z,11.11
2022-11-17T10:18:01.569Z,11.16
2022-11-17T10:19:01.698Z,11.16
2022-11-17T10:20:01.770Z,11.20
2022-11-17T10:21:01.821Z,11.19
2022-11-17T10:22:01.930Z,11.21
2022-11-17T10:23:01.983Z,11.21
2022-11-17T10:24:02.070Z,11.21
2022-11-17T10:25:02.159Z,11.24
2022-11-17T10:26:02.274Z,11.24
2022-11-17T10:27:02.369Z,11.25
2022-11-17T10:28:02.393Z,11.25
2022-11-17T10:29:08.134Z,11.28
2022-11-17T10:30:02.600Z,11.29
2022-11-17T10:31:02.652Z,11.31
2022-11-17T10:32:02.714Z,11.32
2022-11-17T10:33:02.780Z,11.32
2022-11-17T10:34:03.073Z,11.34
2022-11-17T10:35:03.783Z,11.36
2022-11-17T10:36:02.989Z,11.38
2022-11-17T10:37:03.034Z,11.43
2022-11-17T10:38:03.147Z,11.44
2022-11-17T10:39:03.237Z,11.46
2022-11-17T10:40:03.373Z,11.49
2022-11-17T10:41:03.374Z,11.53
2022-11-17T10:42:03.462Z,11.56
2022-11-17T10:43:03.544Z,11.59
2022-11-17T10:44:03.627Z,11.64
2022-11-17T10:45:03.698Z,11.67
2022-11-17T10:46:03.865Z,11.71
2022-11-17T10:47:03.860Z,11.74
2022-11-17T10:48:03.956Z,11.77
2022-11-17T10:49:04.050Z,11.78
2022-11-17T10:50:04.135Z,11.83
2022-11-17T10:51:04.259Z,11.85
2022-11-17T10:52:04.360Z,11.89
2022-11-17T10:53:07.625Z,11.93
2022-11-17T10:54:04.466Z,11.94
2022-11-17T10:55:04.552Z,11.97
2022-11-17T10:56:04.624Z,12.01
2022-11-17T10:57:04.701Z,12.04
2022-11-17T10:58:04.752Z,12.05
2022-11-17T10:59:04.829Z,12.06
2022-11-17T11:00:04.931Z,12.09
2022-11-17T11:01:05.094Z,12.12
2022-11-17T11:02:05.068Z,12.13
2022-11-17T11:03:05.127Z,12.15
2022-11-17T11:04:05.263Z,12.16
2022-11-17T11:05:05.320Z,12.19
2022-11-17T11:06:05.376Z,12.23
2022-11-17T11:07:05.517Z,12.27
2022-11-17T11:08:05.524Z,12.29
2022-11-17T11:09:05.625Z,12.30
2022-11-17T11:10:05.757Z,12.33
2022-11-17T11:11:05.792Z,12.37
2022-11-17T11:12:05.853Z,12.38
2022-11-17T11:13:05.949Z,12.41
2022-11-17T11:14:06.097Z,12.42
2022-11-17T11:15:06.148Z,12.42
2022-11-17T11:16:06.205Z,12.45
2022-11-17T11:17:06.274Z,12.46
2022-11-17T11:18:06.372Z,12.48
2022-11-17T11:19:06.422Z,12.49
2022-11-17T11:20:06.535Z,12.51
2022-11-17T11:21:06.624Z,12.52
2022-11-17T11:22:10.417Z,12.56
2022-11-17T11:23:06.921Z,12.56
2022-11-17T11:24:06.892Z,12.59
2022-11-17T11:25:06.966Z,12.59
2022-11-17T11:26:07.029Z,12.62
2022-11-17T11:27:07.121Z,12.60
2022-11-17T11:28:07.194Z,12.63
2022-11-17T11:29:07.368Z,12.64
2022-11-17T11:30:07.395Z,12.64
2022-11-17T11:31:07.471Z,12.64
2022-11-17T11:32:07.476Z,12.63
2022-11-17T11:33:07.564Z,12.63
2022-11-17T11:34:07.697Z,12.63
2022-11-17T11:35:07.786Z,12.62
2022-11-17T11:36:07.847Z,12.60
2022-11-17T11:37:07.902Z,12.60
2022-11-17T11:38:08.070Z,12.59
2022-11-17T11:39:08.639Z,12.59
2022-11-17T11:40:08.192Z,12.60
2022-11-17T11:41:08.253Z,12.59
2022-11-17T11:42:08.522Z,12.60
2022-11-17T11:43:08.440Z,12.60
2022-11-17T11:44:08.543Z,12.60
2022-11-17T11:45:08.649Z,12.60
2022-11-17T11:46:08.704Z,12.60
2022-11-17T11:47:08.951Z,12.59
2022-11-17T11:48:08.880Z,12.57
2022-11-17T11:49:09.378Z,12.56
2022-11-17T11:50:09.065Z,12.54
2022-11-17T11:51:09.316Z,12.51
2022-11-17T11:52:09.229Z,12.48
2022-11-17T11:53:09.302Z,12.48
2022-11-17T11:54:09.853Z,12.46
2022-11-17T11:55:09.508Z,12.46
2022-11-17T11:56:09.562Z,12.46
2022-11-17T11:57:09.694Z,12.45
2022-11-17T11:58:09.761Z,12.45
2022-11-17T11:59:09.858Z,12.45
2022-11-17T12:00:09.933Z,12.45
2022-11-17T12:01:09.997Z,12.45
2022-11-17T12:02:10.202Z,12.45
2022-11-17T12:03:10.213Z,12.44
2022-11-17T12:04:10.536Z,12.45
2022-11-17T12:05:10.330Z,12.46
2022-11-17T12:06:10.354Z,12.46
2022-11-17T12:07:10.537Z,12.46
2022-11-17T12:08:11.080Z,12.46
2022-11-17T12:09:10.571Z,12.48
2022-11-17T12:10:10.690Z,12.48
2022-11-17T12:11:10.779Z,12.48
2022-11-17T12:12:10.871Z,12.49
2022-11-17T12:13:11.094Z,12.49
2022-11-17T12:14:11.366Z,12.52
2022-11-17T12:15:11.070Z,12.54
2022-11-17T12:16:11.145Z,12.52
2022-11-17T12:17:11.244Z,12.52
2022-11-17T12:18:11.305Z,12.52
2022-11-17T12:19:11.350Z,12.51
2022-11-17T12:20:11.433Z,12.51
2022-11-17T12:21:11.481Z,12.51
2022-11-17T12:22:11.570Z,12.51
2022-11-17T12:23:11.639Z,12.49
2022-11-17T12:24:12.028Z,12.51
2022-11-17T12:25:11.814Z,12.49
2022-11-17T12:26:11.891Z,12.48
2022-11-17T12:27:11.938Z,12.48
2022-11-17T12:28:12.041Z,12.49
2022-11-17T12:29:12.125Z,12.51
2022-11-17T12:30:12.230Z,12.51
2022-11-17T12:31:12.309Z,12.52
2022-11-17T12:32:12.379Z,12.56
2022-11-17T12:33:12.440Z,12.54
2022-11-17T12:34:12.891Z,12.54
2022-11-17T12:35:12.634Z,12.56
2022-11-17T12:36:12.715Z,12.54
2022-11-17T12:37:12.795Z,12.57
2022-11-17T12:38:12.854Z,12.56
2022-11-17T12:39:12.922Z,12.57
2022-11-17T12:40:13.026Z,12.59
2022-11-17T12:41:13.069Z,12.59
2022-11-17T12:42:13.161Z,12.59
2022-11-17T12:43:13.239Z,12.59
2022-11-17T12:44:13.801Z,12.60
2022-11-17T12:45:13.448Z,12.60
2022-11-17T12:46:13.478Z,12.59
2022-11-17T12:47:13.541Z,12.59
2022-11-17T12:48:32.793Z,12.59
2022-11-17T12:49:13.778Z,12.60
2022-11-17T12:50:13.751Z,12.59
2022-11-17T12:51:13.838Z,12.59
2022-11-17T12:52:13.918Z,12.60
2022-11-17T12:53:14.014Z,12.62
2022-11-17T12:54:14.417Z,12.60
2022-11-17T12:55:14.182Z,12.60
2022-11-17T12:56:14.229Z,12.62
2022-11-17T12:57:14.368Z,12.62
2022-11-17T12:58:14.428Z,12.62
2022-11-17T12:59:14.532Z,12.63
2022-11-17T13:00:14.585Z,12.64
2022-11-17T13:25:22.611Z,11.87
2022-11-17T13:33:04.364Z,11.83
2022-11-17T13:34:05.284Z,11.83
2022-11-17T13:35:05.309Z,11.87
2022-11-17T13:36:06.703Z,11.93
2022-11-17T13:59:44.235Z,11.62
2022-11-17T14:00:45.264Z,11.64
2022-11-17T14:01:45.382Z,11.68
2022-11-17T14:02:45.439Z,11.74
2022-11-17T14:03:45.521Z,11.80
2022-11-17T14:04:45.595Z,11.85
2022-11-17T14:05:46.013Z,11.90
2022-11-17T14:06:45.765Z,11.94
2022-11-17T14:07:45.842Z,12.01
2022-11-17T14:08:49.210Z,12.05
2022-11-17T14:09:45.999Z,12.09
2022-11-17T14:10:46.070Z,12.13
2022-11-17T14:11:53.862Z,12.16
2022-11-17T14:12:46.326Z,12.21
2022-11-17T14:13:46.411Z,12.21
2022-11-17T14:14:46.641Z,12.24
2022-11-17T14:15:52.140Z,12.27
2022-11-17T14:16:46.574Z,12.29
2022-11-17T14:17:46.642Z,12.30
2022-11-17T14:18:46.704Z,12.33
2022-11-17T14:19:46.786Z,12.34
2022-11-17T14:20:46.857Z,12.34
2022-11-17T14:21:47.049Z,12.38
2022-11-17T14:22:46.977Z,12.38
2022-11-17T14:23:47.127Z,12.38
2022-11-17T14:24:47.149Z,12.39
2022-11-17T14:25:47.259Z,12.39
2022-11-17T14:26:47.338Z,12.39
2022-11-17T14:27:52.089Z,12.41
2022-11-17T14:28:47.557Z,12.41
2022-11-17T14:29:50.193Z,12.41
2022-11-17T14:30:47.718Z,12.39
2022-11-17T14:31:49.274Z,12.41
2022-11-17T14:32:49.830Z,12.41
2022-11-17T14:33:47.949Z,12.42
2022-11-17T14:34:48.056Z,12.41
2022-11-17T14:35:48.159Z,12.42
2022-11-17T14:36:48.174Z,12.42
2022-11-17T14:37:48.293Z,12.42
2022-11-17T14:38:48.383Z,12.42
2022-11-17T14:39:48.475Z,12.44
2022-11-17T14:40:49.209Z,12.42
2022-11-17T14:41:48.643Z,12.41
2022-11-17T14:42:48.737Z,12.42
2022-11-17T14:43:49.189Z,12.42
2022-11-17T14:44:48.863Z,12.41
2022-11-17T14:45:48.986Z,12.39
2022-11-17T14:46:49.019Z,12.41
2022-11-17T14:47:49.131Z,12.41
2022-11-17T14:48:49.202Z,12.41
2022-11-17T14:49:49.267Z,12.39
2022-11-17T14:50:49.375Z,12.39
2022-11-17T14:51:49.442Z,12.39
2022-11-17T14:52:49.503Z,12.39
2022-11-17T14:53:49.568Z,12.38
2022-11-17T14:54:49.621Z,12.38
2022-11-17T14:55:49.753Z,12.37
2022-11-17T14:56:49.801Z,12.37
2022-11-17T14:57:49.909Z,12.37
2022-11-17T14:58:49.967Z,12.33